Time;durP1;ratioP1;P1;durP2;ratioP2;P2;SDS_P1;SDS_P2;PMS_P1;PMS_P2;Temp;Humidity;BMP_temperature;BMP_pressure;BME280_temperature;BME280_humidity;BME280_pressure;Samples;Min_cycle;Max_cycle;Signal;HPM_P1;HPM_P2
2021/05/30 00:02:19;;;;;;;2.93;1.70;;;15.10;83.20;;;;;;5027286;28;20874;-79
2021/05/30 00:04:47;;;;;;;2.30;2.10;;;15.10;83.80;;;;;;5060370;28;20550;-81
2021/05/30 00:07:14;;;;;;;1.83;1.57;;;15.20;85.60;;;;;;5025580;28;20435;-81
2021/05/30 00:09:42;;;;;;;1.47;1.33;;;15.10;83.60;;;;;;5027675;28;20549;-81
2021/05/30 00:12:11;;;;;;;1.90;1.73;;;15.20;81.80;;;;;;5028236;28;20526;-80
2021/05/30 00:14:39;;;;;;;1.70;1.60;;;15.10;81.70;;;;;;5025855;28;20574;-81
2021/05/30 00:17:08;;;;;;;2.10;1.53;;;15.10;81.20;;;;;;5026345;28;20459;-80
2021/05/30 00:19:36;;;;;;;3.63;1.50;;;15.10;80.50;;;;;;5026632;28;20572;-80
2021/05/30 00:22:04;;;;;;;1.40;1.30;;;15.00;82.20;;;;;;5026669;28;20963;-81
2021/05/30 00:24:32;;;;;;;3.10;1.30;;;15.00;80.80;;;;;;5025919;28;20482;-80
2021/05/30 00:26:59;;;;;;;0.97;0.97;;;15.10;74.20;;;;;;5063960;28;20847;-80
2021/05/30 00:29:27;;;;;;;2.63;1.07;;;15.10;69.70;;;;;;5029077;28;20472;-83
2021/05/30 00:31:55;;;;;;;1.83;1.17;;;15.20;69.00;;;;;;5030465;28;20455;-79
2021/05/30 00:34:24;;;;;;;1.10;1.00;;;15.30;70.10;;;;;;5029900;28;21280;-77
2021/05/30 00:36:52;;;;;;;1.00;1.00;;;15.30;69.60;;;;;;5027315;28;21306;-80
2021/05/30 00:39:20;;;;;;;4.23;2.73;;;15.40;67.60;;;;;;5029937;28;20452;-79
2021/05/30 00:41:48;;;;;;;21.20;8.30;;;15.30;70.60;;;;;;5063475;28;20459;-80
2021/05/30 00:44:21;;;;;;;3.90;2.83;;;15.20;72.70;;;;;;5029340;28;20481;-82
2021/05/30 00:46:49;;;;;;;4.10;1.60;;;15.10;73.30;;;;;;5031008;28;20500;-80
2021/05/30 00:49:17;;;;;;;1.40;1.30;;;15.10;77.20;;;;;;5028332;28;20463;-80
2021/05/30 00:51:47;;;;;;;1.80;1.40;;;15.00;76.70;;;;;;5030643;28;20463;-80
2021/05/30 00:54:16;;;;;;;1.60;1.50;;;14.80;73.40;;;;;;5028857;28;20473;-80
2021/05/30 00:56:44;;;;;;;1.80;1.70;;;14.70;75.60;;;;;;5030598;28;20459;-79
2021/05/30 00:59:13;;;;;;;1.30;1.20;;;14.70;73.20;;;;;;5028254;28;20462;-81
2021/05/30 01:01:42;;;;;;;1.67;1.57;;;14.70;72.50;;;;;;5030608;28;20478;-81
2021/05/30 01:04:10;;;;;;;1.63;1.30;;;14.60;73.50;;;;;;5028822;28;20578;-79
2021/05/30 01:06:39;;;;;;;1.20;1.10;;;14.60;73.80;;;;;;5029868;28;20466;-80
2021/05/30 01:09:08;;;;;;;1.90;1.80;;;14.60;76.30;;;;;;5027112;28;20499;-80
2021/05/30 01:11:37;;;;;;;1.20;1.10;;;14.50;75.10;;;;;;5029850;28;20951;-79
2021/05/30 01:14:07;;;;;;;1.30;1.20;;;14.50;75.30;;;;;;5029010;28;20516;-80
2021/05/30 01:16:36;;;;;;;1.07;1.03;;;14.40;74.70;;;;;;5030258;28;20497;-81
2021/05/30 01:19:08;;;;;;;1.57;1.20;;;14.40;77.20;;;;;;5028939;28;20455;-79
2021/05/30 01:21:36;;;;;;;2.50;1.50;;;14.40;77.90;;;;;;5029592;28;20476;-84
2021/05/30 01:24:07;;;;;;;1.50;1.30;;;14.30;78.40;;;;;;5029867;28;20535;-80
2021/05/30 01:26:36;;;;;;;1.20;1.10;;;14.30;77.20;;;;;;5030290;28;20453;-81
2021/05/30 01:29:04;;;;;;;1.30;1.20;;;14.30;78.90;;;;;;5027962;28;20889;-79
2021/05/30 01:31:32;;;;;;;2.73;1.40;;;14.30;79.30;;;;;;5030227;28;20569;-79
2021/05/30 01:34:00;;;;;;;1.10;1.10;;;14.20;80.70;;;;;;5027964;28;21018;-80
2021/05/30 01:36:28;;;;;;;1.17;1.00;;;14.20;81.90;;;;;;5029538;28;20458;-80
2021/05/30 01:38:56;;;;;;;1.30;1.20;;;14.20;80.30;;;;;;5029100;28;20550;-82
2021/05/30 01:41:25;;;;;;;1.30;1.10;;;14.10;78.90;;;;;;5019599;28;20483;-82
2021/05/30 01:43:53;;;;;;;1.47;1.37;;;14.10;79.40;;;;;;5009010;28;20470;-80
2021/05/30 01:46:21;;;;;;;1.30;1.20;;;14.10;81.30;;;;;;5057507;28;20468;-80
2021/05/30 01:48:49;;;;;;;1.37;1.20;;;14.00;81.00;;;;;;5028079;28;20448;-79
2021/05/30 01:51:16;;;;;;;1.17;1.10;;;14.00;81.80;;;;;;5029104;28;20655;-80
2021/05/30 01:53:50;;;;;;;1.50;1.40;;;14.00;84.00;;;;;;5029190;28;20497;-80
2021/05/30 01:59:05;;;;;;;1.60;1.50;;;14.00;86.00;;;;;;5041371;28;20547;-80
2021/05/30 02:01:33;;;;;;;1.80;1.50;;;14.00;87.90;;;;;;5032117;28;20563;-81
2021/05/30 02:04:04;;;;;;;1.37;1.33;;;14.00;87.20;;;;;;5028325;28;20483;-79
2021/05/30 02:06:32;;;;;;;2.30;1.73;;;14.00;90.00;;;;;;5028190;28;20471;-80
2021/05/30 02:09:01;;;;;;;1.80;1.30;;;14.00;90.20;;;;;;5026745;28;20821;-80
2021/05/30 02:11:29;;;;;;;1.50;1.37;;;13.90;88.70;;;;;;5061575;28;20463;-80
2021/05/30 02:13:59;;;;;;;1.40;1.30;;;13.90;89.90;;;;;;5028921;28;20484;-81
2021/05/30 02:16:29;;;;;;;2.80;1.60;;;13.90;90.00;;;;;;5028953;28;20543;-81
2021/05/30 02:18:57;;;;;;;2.00;1.40;;;13.90;88.90;;;;;;5028626;28;20852;-79
2021/05/30 02:21:26;;;;;;;1.60;1.50;;;13.90;89.30;;;;;;5030913;28;20541;-80
2021/05/30 02:23:53;;;;;;;1.73;1.63;;;13.90;88.20;;;;;;5028758;28;20470;-82
2021/05/30 02:26:21;;;;;;;1.53;1.40;;;13.90;91.00;;;;;;5028209;28;20554;-80
2021/05/30 02:28:49;;;;;;;2.20;1.63;;;13.90;90.90;;;;;;5027950;28;20543;-81
2021/05/30 02:31:17;;;;;;;2.00;1.77;;;14.00;90.80;;;;;;5027931;28;20469;-80
2021/05/30 02:33:46;;;;;;;3.30;1.90;;;13.80;91.10;;;;;;5028257;28;20489;-80
2021/05/30 02:36:13;;;;;;;2.00;1.73;;;13.80;91.50;;;;;;5058700;28;20490;-80
2021/05/30 02:38:41;;;;;;;2.47;2.27;;;13.90;92.70;;;;;;5024415;28;20457;-80
2021/05/30 02:41:09;;;;;;;2.60;1.90;;;13.90;92.50;;;;;;5007753;28;20463;-82
2021/05/30 02:43:37;;;;;;;1.77;1.67;;;13.90;93.80;;;;;;5042932;28;20481;-80
2021/05/30 02:46:05;;;;;;;1.87;1.77;;;13.90;93.80;;;;;;5027999;28;20473;-80
2021/05/30 02:48:33;;;;;;;2.60;1.90;;;13.80;95.10;;;;;;5027221;28;20473;-82
2021/05/30 02:51:01;;;;;;;2.73;1.77;;;13.80;95.70;;;;;;5060235;28;20790;-79
2021/05/30 02:53:31;;;;;;;3.10;2.10;;;13.70;94.70;;;;;;5027943;28;20481;-79
2021/05/30 02:56:00;;;;;;;3.03;1.80;;;13.70;95.00;;;;;;5030677;28;20540;-82
2021/05/30 02:58:30;;;;;;;1.93;1.83;;;13.60;93.70;;;;;;5028007;28;20460;-79
2021/05/30 03:00:58;;;;;;;2.33;2.13;;;13.60;94.50;;;;;;5027149;28;20990;-80
2021/05/30 03:03:26;;;;;;;3.03;1.77;;;13.60;94.20;;;;;;5028810;28;20907;-81
2021/05/30 03:05:54;;;;;;;2.60;2.07;;;13.50;95.00;;;;;;5026925;28;20459;-81
2021/05/30 03:08:23;;;;;;;2.53;1.97;;;13.50;94.50;;;;;;5032666;28;21035;-80
2021/05/30 03:10:51;;;;;;;2.70;1.93;;;13.50;94.90;;;;;;5028371;28;20549;-80
2021/05/30 03:13:19;;;;;;;7.80;2.10;;;13.50;95.60;;;;;;5027744;28;20907;-80
2021/05/30 03:15:47;;;;;;;2.47;2.27;;;13.50;96.90;;;;;;5026537;28;20873;-80
2021/05/30 03:18:14;;;;;;;3.57;1.73;;;13.40;95.50;;;;;;5027202;28;20493;-81
2021/05/30 03:20:42;;;;;;;2.30;1.70;;;13.40;96.00;;;;;;5026542;28;20464;-80
2021/05/30 03:23:10;;;;;;;2.00;1.70;;;13.40;97.50;;;;;;5027642;28;20547;-80
2021/05/30 03:25:39;;;;;;;2.07;1.97;;;13.40;99.90;;;;;;5026740;28;21028;-82
2021/05/30 03:28:07;;;;;;;2.57;1.97;;;13.40;98.00;;;;;;5026788;28;20500;-80
2021/05/30 03:30:35;;;;;;;2.70;2.50;;;13.40;97.80;;;;;;5026318;28;20476;-80
2021/05/30 03:33:02;;;;;;;2.30;2.00;;;13.40;98.00;;;;;;5027641;28;20463;-81
2021/05/30 03:35:30;;;;;;;2.53;2.17;;;13.30;97.80;;;;;;5026496;28;20486;-80
2021/05/30 03:37:59;;;;;;;25.23;9.70;;;13.30;99.90;;;;;;5026144;28;20473;-81
2021/05/30 03:40:30;;;;;;;6.33;3.40;;;13.40;98.20;;;;;;5026543;28;20470;-82
2021/05/30 03:42:59;;;;;;;1.73;1.60;;;13.30;97.90;;;;;;5026392;28;20465;-80
2021/05/30 03:45:26;;;;;;;3.83;1.87;;;13.20;98.20;;;;;;5026917;28;20461;-80
2021/05/30 03:47:54;;;;;;;2.17;1.97;;;13.10;97.80;;;;;;5026234;28;20455;-82
2021/05/30 03:50:22;;;;;;;3.10;2.40;;;13.10;97.80;;;;;;5026834;28;20808;-80
2021/05/30 03:52:50;;;;;;;4.13;2.17;;;13.10;97.80;;;;;;5027896;28;20953;-80
2021/05/30 03:55:19;;;;;;;2.23;2.03;;;13.10;98.40;;;;;;5007160;28;20563;-81
2021/05/30 03:57:47;;;;;;;4.13;2.20;;;13.20;97.80;;;;;;5023090;28;20545;-79
2021/05/30 04:00:19;;;;;;;3.77;2.60;;;13.20;98.60;;;;;;5025779;28;20919;-81
2021/05/30 04:02:47;;;;;;;2.47;2.17;;;13.10;97.90;;;;;;5030358;28;20544;-80
2021/05/30 04:05:16;;;;;;;2.67;2.30;;;13.10;97.80;;;;;;5027127;28;20468;-80
2021/05/30 04:07:44;;;;;;;2.43;2.23;;;13.00;98.80;;;;;;5024308;28;20544;-80
2021/05/30 04:10:13;;;;;;;1.80;1.70;;;13.00;99.70;;;;;;5025928;28;20460;-80
2021/05/30 04:12:43;;;;;;;1.80;1.70;;;13.10;99.20;;;;;;5026529;28;20817;-80
2021/05/30 04:15:12;;;;;;;1.93;1.83;;;13.10;98.60;;;;;;5026481;28;20545;-80
2021/05/30 04:17:43;;;;;;;2.13;1.97;;;13.20;99.90;;;;;;5027926;28;20497;-82
2021/05/30 04:20:16;;;;;;;2.57;1.73;;;13.10;99.90;;;;;;5043060;28;20480;-80
2021/05/30 04:22:44;;;;;;;2.93;2.27;;;13.10;99.90;;;;;;5026290;28;20498;-81
2021/05/30 04:25:13;;;;;;;2.60;2.40;;;13.10;99.90;;;;;;5028598;28;20473;-79
2021/05/30 04:27:42;;;;;;;2.97;2.47;;;13.10;99.90;;;;;;5043195;28;20459;-78
2021/05/30 04:30:12;;;;;;;2.50;2.00;;;13.10;99.90;;;;;;5026306;28;20464;-79
2021/05/30 04:32:41;;;;;;;1.90;1.80;;;13.10;99.90;;;;;;5026134;28;20473;-80
2021/05/30 04:35:11;;;;;;;2.03;1.90;;;13.10;99.90;;;;;;5026957;28;20583;-81
2021/05/30 04:37:39;;;;;;;3.80;2.13;;;13.10;99.90;;;;;;5025742;28;20493;-80
2021/05/30 04:40:11;;;;;;;2.47;2.20;;;13.10;99.90;;;;;;5026382;28;20453;-81
2021/05/30 04:42:38;;;;;;;1.90;1.80;;;13.20;99.90;;;;;;5025747;28;20456;-80
2021/05/30 04:45:08;;;;;;;2.70;2.40;;;13.20;99.90;;;;;;5028438;28;20501;-81
2021/05/30 04:47:36;;;;;;;2.47;2.27;;;13.20;99.90;;;;;;5025396;28;20843;-80
2021/05/30 04:50:06;;;;;;;3.20;1.67;;;13.20;99.90;;;;;;5027767;28;20444;-77
2021/05/30 04:52:39;;;;;;;5.13;1.83;;;13.30;99.90;;;;;;5025406;28;20458;-81
2021/05/30 04:55:09;;;;;;;1.80;1.70;;;13.30;99.90;;;;;;5027476;28;20533;-80
2021/05/30 04:57:37;;;;;;;1.73;1.50;;;13.40;99.90;;;;;;5025499;28;20510;-80
2021/05/30 05:00:07;;;;;;;1.90;1.80;;;13.40;99.90;;;;;;5026261;28;20453;-80
2021/05/30 05:02:36;;;;;;;1.70;1.60;;;13.50;99.90;;;;;;5025249;28;20826;-80
2021/05/30 05:05:06;;;;;;;1.70;1.33;;;13.50;99.90;;;;;;5059509;28;20470;-80
2021/05/30 05:07:34;;;;;;;1.83;1.73;;;13.60;99.90;;;;;;5053425;28;20454;-79
2021/05/30 05:10:03;;;;;;;1.90;1.80;;;13.60;99.90;;;;;;5026706;28;20869;-78
2021/05/30 05:12:31;;;;;;;2.10;1.90;;;13.80;99.90;;;;;;5029584;28;20470;-80
2021/05/30 05:14:58;;;;;;;1.67;1.57;;;13.80;99.90;;;;;;5035077;28;20488;-82
2021/05/30 05:17:26;;;;;;;1.83;1.47;;;13.90;99.90;;;;;;5033782;28;20457;-79
2021/05/30 05:19:54;;;;;;;2.37;1.67;;;13.90;99.90;;;;;;5032941;28;20531;-81
2021/05/30 05:22:23;;;;;;;2.80;1.60;;;13.90;99.90;;;;;;5033554;28;20549;-79
2021/05/30 05:25:00;;;;;;;1.80;1.60;;;14.00;99.90;;;;;;5038746;28;20496;-79
2021/05/30 05:27:28;;;;;;;1.40;1.30;;;14.10;99.90;;;;;;5063130;28;20494;-80
2021/05/30 05:29:56;;;;;;;1.60;1.33;;;14.20;99.90;;;;;;5029122;28;21029;-79
2021/05/30 05:32:24;;;;;;;2.50;1.83;;;14.20;99.90;;;;;;5030446;28;20502;-79
2021/05/30 05:34:52;;;;;;;1.60;1.50;;;14.30;99.90;;;;;;5028982;28;20886;-80
2021/05/30 05:37:20;;;;;;;1.70;1.60;;;14.40;99.90;;;;;;5046126;28;20448;-80
2021/05/30 05:39:49;;;;;;;2.20;1.40;;;14.40;99.90;;;;;;5056556;28;20488;-81
2021/05/30 05:42:17;;;;;;;1.50;1.40;;;14.50;99.90;;;;;;5033073;28;20455;-79
2021/05/30 05:44:45;;;;;;;1.40;1.30;;;14.50;99.90;;;;;;5030169;28;20535;-79
2021/05/30 05:47:12;;;;;;;1.50;1.40;;;14.60;99.90;;;;;;5029649;28;20460;-79
2021/05/30 05:49:40;;;;;;;1.70;1.60;;;14.60;99.90;;;;;;5029651;28;20440;-79
2021/05/30 05:52:08;;;;;;;1.67;1.50;;;14.60;99.90;;;;;;5029443;28;20472;-79
2021/05/30 05:54:50;;;;;;;1.90;1.80;;;14.70;99.90;;;;;;5044909;28;20499;-81
2021/05/30 05:57:18;;;;;;;2.73;1.40;;;14.80;99.90;;;;;;5029637;28;20501;-82
2021/05/30 05:59:46;;;;;;;1.80;1.70;;;14.80;99.90;;;;;;5027306;28;20484;-80
2021/05/30 06:02:13;;;;;;;1.77;1.67;;;14.80;99.90;;;;;;5029123;28;20507;-79
2021/05/30 06:04:45;;;;;;;1.77;1.67;;;14.80;99.90;;;;;;5028530;28;20480;-79
2021/05/30 06:07:13;;;;;;;1.80;1.70;;;14.80;99.90;;;;;;5026792;28;20545;-79
2021/05/30 06:09:41;;;;;;;5.03;2.03;;;14.90;99.90;;;;;;5027110;28;20457;-80
2021/05/30 06:12:11;;;;;;;2.80;1.50;;;14.90;99.90;;;;;;5023983;28;20565;-79
2021/05/30 06:14:39;;;;;;;2.83;1.60;;;14.90;99.90;;;;;;5024315;28;21048;-80
2021/05/30 06:17:07;;;;;;;1.60;1.50;;;15.00;99.90;;;;;;5029475;28;20456;-79
2021/05/30 06:19:35;;;;;;;1.87;1.53;;;15.00;99.90;;;;;;5040501;28;20458;-81
2021/05/30 06:22:03;;;;;;;1.73;1.60;;;15.00;99.90;;;;;;5045726;28;20670;-78
2021/05/30 06:24:32;;;;;;;1.67;1.50;;;15.10;99.90;;;;;;5028373;28;20500;-79
2021/05/30 06:27:02;;;;;;;1.60;1.50;;;15.10;99.90;;;;;;5062102;28;20456;-80
2021/05/30 06:29:31;;;;;;;1.73;1.50;;;15.20;99.90;;;;;;5026756;28;20542;-79
2021/05/30 06:31:59;;;;;;;2.00;1.73;;;15.20;99.90;;;;;;5030192;28;20478;-81
2021/05/30 06:34:27;;;;;;;2.07;1.87;;;15.30;99.90;;;;;;5027467;28;20477;-79
2021/05/30 06:36:55;;;;;;;2.23;2.03;;;15.40;99.90;;;;;;5028357;28;20473;-79
2021/05/30 06:39:24;;;;;;;1.30;1.20;;;15.50;99.10;;;;;;5032007;28;20481;-79
2021/05/30 06:41:52;;;;;;;1.77;1.40;;;15.50;98.90;;;;;;5061653;28;20466;-80
2021/05/30 06:44:20;;;;;;;1.33;1.23;;;15.60;98.90;;;;;;5061690;28;20560;-79
2021/05/30 06:46:49;;;;;;;1.33;1.23;;;15.70;97.00;;;;;;5028036;28;20465;-80
2021/05/30 06:49:17;;;;;;;1.93;1.60;;;15.70;97.20;;;;;;5026783;28;20460;-80
2021/05/30 06:51:45;;;;;;;1.33;1.10;;;15.80;93.40;;;;;;5028131;28;20839;-80
2021/05/30 06:54:13;;;;;;;2.50;1.27;;;16.00;94.20;;;;;;5052791;28;21144;-80
2021/05/30 06:56:41;;;;;;;1.50;1.20;;;16.20;96.00;;;;;;5028530;28;20502;-80
2021/05/30 06:59:10;;;;;;;1.30;1.20;;;16.40;98.20;;;;;;5026385;28;20456;-81
2021/05/30 07:01:37;;;;;;;1.30;1.10;;;16.70;95.90;;;;;;5020858;28;20462;-80
2021/05/30 07:04:06;;;;;;;1.30;1.20;;;16.90;96.10;;;;;;5038953;28;20479;-80
2021/05/30 07:06:34;;;;;;;1.53;1.43;;;17.00;97.80;;;;;;5042138;28;20450;-79
2021/05/30 07:09:05;;;;;;;1.40;1.30;;;17.20;98.50;;;;;;5027769;28;20434;-78
2021/05/30 07:11:34;;;;;;;1.43;1.33;;;17.30;93.90;;;;;;5027633;28;21066;-83
2021/05/30 07:14:03;;;;;;;1.40;1.30;;;17.50;93.70;;;;;;5028727;28;20554;-78
2021/05/30 07:16:31;;;;;;;1.57;1.47;;;17.40;92.80;;;;;;5027686;28;21119;-80
2021/05/30 07:18:59;;;;;;;2.03;1.60;;;17.40;93.60;;;;;;5026231;28;20963;-80
2021/05/30 07:21:28;;;;;;;1.70;1.60;;;17.40;91.50;;;;;;5027410;28;20460;-79
2021/05/30 07:23:56;;;;;;;3.43;1.80;;;17.30;90.60;;;;;;5027091;28;20998;-80
2021/05/30 07:26:23;;;;;;;1.67;1.50;;;17.30;89.60;;;;;;5023243;28;20466;-79
2021/05/30 07:28:52;;;;;;;1.47;1.37;;;17.30;90.50;;;;;;5026674;28;20459;-79
2021/05/30 07:31:20;;;;;;;1.33;1.23;;;17.20;88.00;;;;;;5054524;28;20451;-79
2021/05/30 07:33:48;;;;;;;2.10;2.00;;;17.30;88.50;;;;;;5017381;28;21154;-79
2021/05/30 07:36:16;;;;;;;1.43;1.33;;;17.20;86.50;;;;;;5059702;28;20972;-80
2021/05/30 07:38:45;;;;;;;2.07;1.50;;;17.20;90.50;;;;;;5025814;28;20541;-81
2021/05/30 07:41:13;;;;;;;1.30;1.27;;;17.30;92.10;;;;;;5027670;28;20730;-80
2021/05/30 07:43:41;;;;;;;1.63;1.47;;;17.40;90.80;;;;;;5026520;28;20510;-80
2021/05/30 07:46:09;;;;;;;1.60;1.50;;;17.50;88.80;;;;;;5026255;28;20569;-79
2021/05/30 07:48:39;;;;;;;1.50;1.40;;;17.50;85.10;;;;;;5026274;28;20453;-79
2021/05/30 07:51:07;;;;;;;1.83;1.50;;;17.40;81.30;;;;;;5026907;28;20465;-81
2021/05/30 07:53:34;;;;;;;2.03;1.57;;;17.40;80.70;;;;;;5026571;28;20479;-79
2021/05/30 07:56:04;;;;;;;1.87;1.60;;;17.40;82.40;;;;;;5025119;28;20663;-79
2021/05/30 07:58:32;;;;;;;2.97;1.40;;;17.50;85.10;;;;;;5027720;28;20439;-79
2021/05/30 08:01:00;;;;;;;1.93;1.60;;;17.60;83.90;;;;;;5026199;28;20994;-79
2021/05/30 08:03:28;;;;;;;1.80;1.30;;;17.60;77.90;;;;;;5026914;28;20482;-81
2021/05/30 08:05:55;;;;;;;1.30;1.20;;;17.60;74.30;;;;;;5026469;28;20467;-81
2021/05/30 08:08:23;;;;;;;1.20;1.10;;;17.60;79.70;;;;;;5022590;28;20467;-82
2021/05/30 08:10:51;;;;;;;1.90;1.80;;;17.60;77.80;;;;;;5026350;28;20483;-81
2021/05/30 08:13:20;;;;;;;1.33;1.20;;;17.60;67.90;;;;;;5060210;28;20448;-80
2021/05/30 08:15:48;;;;;;;1.43;1.10;;;17.60;69.60;;;;;;5026968;28;20476;-81
2021/05/30 08:18:16;;;;;;;1.70;1.60;;;17.70;69.10;;;;;;5026310;28;20467;-81
2021/05/30 08:20:45;;;;;;;0.93;0.93;;;17.60;63.50;;;;;;5026151;28;20479;-81
2021/05/30 08:23:13;;;;;;;1.30;1.20;;;17.70;67.80;;;;;;5026771;28;20549;-80
2021/05/30 08:25:41;;;;;;;1.70;1.60;;;17.70;69.60;;;;;;5026924;28;20439;-82
2021/05/30 08:28:10;;;;;;;2.67;1.40;;;18.00;74.50;;;;;;5026007;28;20459;-80
2021/05/30 08:30:39;;;;;;;1.30;1.20;;;18.00;69.00;;;;;;5026150;28;20447;-79
2021/05/30 08:33:08;;;;;;;1.60;1.30;;;17.90;69.40;;;;;;5026605;28;20845;-77
2021/05/30 08:35:36;;;;;;;1.50;1.40;;;17.90;68.80;;;;;;5019907;28;20507;-79
2021/05/30 08:38:19;;;;;;;1.33;1.23;;;17.90;72.80;;;;;;5019815;28;20463;-80
2021/05/30 08:40:57;;;;;;;1.67;1.57;;;18.00;76.80;;;;;;5016700;28;21029;-82
2021/05/30 08:43:25;;;;;;;2.23;2.03;;;18.10;79.10;;;;;;5035726;28;20567;-80
2021/05/30 08:45:54;;;;;;;3.53;1.83;;;18.20;80.60;;;;;;5017634;28;20817;-82
2021/05/30 08:48:22;;;;;;;3.00;1.73;;;18.20;83.60;;;;;;5030132;28;21291;-79
2021/05/30 08:51:02;;;;;;;1.87;1.50;;;18.20;77.90;;;;;;5028087;28;20495;-79
2021/05/30 08:53:32;;;;;;;2.53;1.40;;;18.20;93.30;;;;;;5022142;28;20477;-79
2021/05/30 08:55:59;;;;;;;1.60;1.50;;;18.20;79.50;;;;;;5028381;28;20986;-78
2021/05/30 08:58:36;;;;;;;1.67;1.40;;;18.20;82.40;;;;;;5018220;28;20468;-81
2021/05/30 09:01:14;;;;;;;1.70;1.60;;;18.20;79.40;;;;;;5029297;28;20832;-79
2021/05/30 09:03:54;;;;;;;2.23;2.13;;;18.30;84.90;;;;;;5029644;28;20554;-81
2021/05/30 09:06:23;;;;;;;1.30;1.20;;;18.30;86.00;;;;;;5029867;28;21019;-82
2021/05/30 09:08:53;;;;;;;1.40;1.30;;;18.40;81.50;;;;;;5027179;28;20458;-81
2021/05/30 09:11:41;;;;;;;1.50;1.40;;;18.40;77.00;;;;;;5030140;28;20547;-79
2021/05/30 09:14:13;;;;;;;1.40;1.30;;;18.60;78.10;;;;;;5029301;28;21104;-81
2021/05/30 09:16:54;;;;;;;1.93;1.10;;;18.60;79.90;;;;;;5029787;28;21057;-81
2021/05/30 09:19:45;;;;;;;1.50;1.40;;;18.80;77.80;;;;;;5028064;28;20460;-80
2021/05/30 09:22:30;;;;;;;1.30;1.20;;;18.80;77.10;;;;;;5041316;28;20468;-80
2021/05/30 09:25:14;;;;;;;2.40;1.33;;;18.80;71.70;;;;;;5028969;28;20484;-83
2021/05/30 09:27:47;;;;;;;1.80;1.37;;;18.70;72.10;;;;;;5029229;28;20502;-80
2021/05/30 09:30:21;;;;;;;3.70;1.50;;;18.80;75.60;;;;;;5028912;28;20429;-80
2021/05/30 09:33:13;;;;;;;1.33;1.23;;;18.90;83.80;;;;;;5028615;28;20464;-80
2021/05/30 09:35:53;;;;;;;2.80;1.30;;;19.00;81.60;;;;;;5009742;28;20449;-80
2021/05/30 09:38:25;;;;;;;1.63;1.30;;;19.10;83.20;;;;;;5008294;28;20461;-82
2021/05/30 09:40:54;;;;;;;1.40;1.30;;;19.20;86.60;;;;;;5011682;28;20467;-80
2021/05/30 09:43:24;;;;;;;1.37;1.27;;;19.30;84.60;;;;;;5025248;28;20468;-79
2021/05/30 09:46:07;;;;;;;1.67;1.57;;;19.30;81.60;;;;;;5028996;28;20471;-80
2021/05/30 09:48:40;;;;;;;1.97;1.30;;;19.40;85.60;;;;;;5044451;28;20457;-80
2021/05/30 09:51:29;;;;;;;1.63;1.30;;;19.30;84.00;;;;;;5031150;28;20471;-81
2021/05/30 09:54:01;;;;;;;1.50;1.40;;;19.40;85.20;;;;;;5023736;28;20931;-80
2021/05/30 09:56:35;;;;;;;1.50;1.40;;;19.40;83.00;;;;;;5043040;28;20472;-82
2021/05/30 09:59:05;;;;;;;1.87;1.50;;;19.40;80.90;;;;;;5026918;28;20538;-80
2021/05/30 10:01:52;;;;;;;1.50;1.37;;;19.40;80.80;;;;;;5027738;28;20464;-80
2021/05/30 10:04:23;;;;;;;1.30;1.20;;;19.50;81.70;;;;;;5028814;28;20508;-79
2021/05/30 10:06:51;;;;;;;1.20;1.10;;;19.50;79.30;;;;;;5026948;28;20460;-81
2021/05/30 10:09:19;;;;;;;1.43;1.10;;;19.60;81.40;;;;;;5015983;28;20465;-80
2021/05/30 10:11:47;;;;;;;1.63;1.53;;;19.60;78.00;;;;;;5028943;28;20459;-81
2021/05/30 10:14:15;;;;;;;2.77;1.40;;;19.60;81.90;;;;;;5021416;28;20457;-80
2021/05/30 10:16:44;;;;;;;1.93;1.40;;;19.60;79.90;;;;;;5041910;28;20571;-80
2021/05/30 10:19:16;;;;;;;2.90;1.20;;;19.70;83.50;;;;;;5057987;28;20467;-80
2021/05/30 10:21:51;;;;;;;2.03;1.53;;;19.70;80.10;;;;;;5028287;28;20555;-81
2021/05/30 10:24:19;;;;;;;1.37;1.27;;;19.70;79.40;;;;;;5024898;28;20874;-81
2021/05/30 10:27:09;;;;;;;3.60;1.47;;;19.70;80.20;;;;;;5036327;28;20453;-81
2021/05/30 10:29:37;;;;;;;1.50;1.40;;;19.70;95.60;;;;;;5008515;28;20499;-81
2021/05/30 10:32:16;;;;;;;2.00;1.57;;;19.60;84.00;;;;;;5024389;28;20463;-83
2021/05/30 10:35:10;;;;;;;1.83;1.60;;;19.50;80.60;;;;;;5018182;28;20578;-80
2021/05/30 10:37:44;;;;;;;2.47;2.17;;;19.40;79.70;;;;;;5026707;28;20481;-80
2021/05/30 10:40:33;;;;;;;1.50;1.33;;;19.50;84.00;;;;;;5008200;28;21012;-79
2021/05/30 10:43:19;;;;;;;5.60;3.70;;;19.60;87.20;;;;;;5027011;28;20460;-78
2021/05/30 10:46:02;;;;;;;2.57;1.90;;;19.70;86.20;;;;;;5027794;28;20464;-79
2021/05/30 10:48:31;;;;;;;2.87;1.80;;;19.70;86.10;;;;;;5027120;28;20531;-79
2021/05/30 10:51:23;;;;;;;2.13;1.57;;;19.80;87.40;;;;;;5061239;28;20464;-80
2021/05/30 10:53:53;;;;;;;1.77;1.67;;;19.80;86.30;;;;;;5015140;28;20530;-79
2021/05/30 10:56:28;;;;;;;1.93;1.83;;;19.90;87.10;;;;;;5027563;28;20480;-79
2021/05/30 10:59:32;;;;;;;2.00;1.90;;;19.90;85.20;;;;;;5027141;28;20460;-79
2021/05/30 11:02:02;;;;;;;1.70;1.60;;;19.90;82.60;;;;;;5027991;28;20994;-79
2021/05/30 11:04:38;;;;;;;1.73;1.63;;;19.90;84.50;;;;;;5029542;28;20504;-79
2021/05/30 11:07:39;;;;;;;1.63;1.53;;;19.90;83.50;;;;;;5025525;28;20455;-79
2021/05/30 11:10:12;;;;;;;1.63;1.53;;;20.00;84.90;;;;;;5028834;28;20582;-81
2021/05/30 11:12:58;;;;;;;1.40;1.30;;;20.10;83.90;;;;;;5028036;28;20444;-79
2021/05/30 11:15:35;;;;;;;2.33;1.40;;;20.20;87.10;;;;;;5028862;28;20518;-79
2021/05/30 11:18:04;;;;;;;1.40;1.30;;;20.30;88.20;;;;;;5060428;28;20752;-79
2021/05/30 11:20:48;;;;;;;2.10;1.67;;;20.30;89.90;;;;;;5060611;28;20900;-80
2021/05/30 11:23:20;;;;;;;1.50;1.40;;;20.40;90.60;;;;;;5044045;28;20460;-80
2021/05/30 11:25:51;;;;;;;1.70;1.60;;;20.50;90.70;;;;;;5007004;28;20719;-81
2021/05/30 11:28:20;;;;;;;4.30;1.60;;;20.50;90.50;;;;;;5007022;28;20450;-80
2021/05/30 11:30:54;;;;;;;1.60;1.50;;;20.50;89.20;;;;;;5019574;28;20492;-79
2021/05/30 11:33:40;;;;;;;1.70;1.60;;;20.50;85.40;;;;;;5027793;28;20480;-79
2021/05/30 11:36:28;;;;;;;4.30;2.57;;;20.50;88.60;;;;;;5059904;28;20547;-80
2021/05/30 11:38:58;;;;;;;1.70;1.60;;;20.50;85.70;;;;;;5027728;28;20460;-80
2021/05/30 11:41:30;;;;;;;1.67;1.40;;;20.50;83.30;;;;;;5026694;28;20452;-81
2021/05/30 11:44:16;;;;;;;2.40;1.40;;;20.50;84.50;;;;;;5043593;28;20660;-81
2021/05/30 11:46:49;;;;;;;1.60;1.50;;;20.50;83.80;;;;;;5060015;28;20504;-81
2021/05/30 11:49:20;;;;;;;1.47;1.37;;;20.60;82.50;;;;;;5041992;28;20463;-80
2021/05/30 11:52:02;;;;;;;1.60;1.50;;;20.70;86.40;;;;;;5027605;28;20619;-81
2021/05/30 11:54:34;;;;;;;1.77;1.40;;;20.70;83.00;;;;;;5026821;28;20465;-81
2021/05/30 11:57:05;;;;;;;2.90;1.77;;;20.70;82.00;;;;;;5027025;28;20488;-78
2021/05/30 11:59:40;;;;;;;1.93;1.80;;;20.70;80.40;;;;;;5044593;28;21039;-80
2021/05/30 12:02:08;;;;;;;2.87;1.67;;;20.70;81.00;;;;;;5013156;28;20863;-80
2021/05/30 12:04:39;;;;;;;2.00;1.90;;;20.70;82.40;;;;;;5025313;28;20479;-80
2021/05/30 12:07:10;;;;;;;2.63;1.73;;;20.70;81.50;;;;;;5025332;28;20443;-79
2021/05/30 12:09:49;;;;;;;4.17;1.60;;;20.70;80.20;;;;;;5025002;28;20639;-80
2021/05/30 12:12:33;;;;;;;2.17;1.57;;;20.70;80.10;;;;;;5040871;28;20464;-82
2021/05/30 12:15:03;;;;;;;2.67;1.73;;;20.80;78.00;;;;;;5023301;28;20489;-82
2021/05/30 12:17:31;;;;;;;4.57;2.83;;;20.90;80.50;;;;;;5023764;28;20936;-80
2021/05/30 12:20:00;;;;;;;2.90;1.50;;;20.90;81.90;;;;;;5036891;28;20473;-80
2021/05/30 12:22:29;;;;;;;1.77;1.67;;;21.00;82.90;;;;;;5029543;28;20465;-80
2021/05/30 12:24:57;;;;;;;1.47;1.37;;;21.00;83.40;;;;;;5064292;28;20522;-79
2021/05/30 12:27:26;;;;;;;1.60;1.50;;;21.10;80.30;;;;;;5030660;28;20631;-81
2021/05/30 12:29:56;;;;;;;2.07;1.70;;;21.00;80.10;;;;;;5029713;28;20452;-79
2021/05/30 12:32:24;;;;;;;3.07;1.80;;;21.10;87.00;;;;;;5030567;28;20452;-79
2021/05/30 12:34:52;;;;;;;1.63;1.50;;;21.20;96.60;;;;;;5029964;28;20478;-79
2021/05/30 12:37:39;;;;;;;1.53;1.43;;;21.30;85.00;;;;;;5037692;28;20914;-79
2021/05/30 12:40:09;;;;;;;2.23;2.03;;;21.30;85.50;;;;;;5016978;28;20496;-81
2021/05/30 12:42:39;;;;;;;2.00;1.73;;;21.30;85.80;;;;;;5029986;28;20543;-79
2021/05/30 12:45:10;;;;;;;1.43;1.33;;;21.40;84.30;;;;;;5029617;28;20480;-80
2021/05/30 12:47:42;;;;;;;1.50;1.40;;;21.30;83.70;;;;;;5030600;28;20968;-81
2021/05/30 12:50:11;;;;;;;1.57;1.47;;;21.30;81.10;;;;;;5029671;28;20556;-80
2021/05/30 12:52:44;;;;;;;1.60;1.50;;;21.30;86.60;;;;;;5028781;28;20860;-80
2021/05/30 12:55:13;;;;;;;1.67;1.57;;;21.30;86.20;;;;;;5029983;28;20620;-80
2021/05/30 12:57:43;;;;;;;1.87;1.67;;;21.30;81.30;;;;;;5028903;28;20574;-79
2021/05/30 13:00:24;;;;;;;2.40;1.40;;;21.40;79.40;;;;;;5029560;28;20460;-81
2021/05/30 13:02:57;;;;;;;1.43;1.33;;;21.20;76.50;;;;;;5029672;28;20483;-79
2021/05/30 13:05:36;;;;;;;1.97;1.77;;;21.40;79.30;;;;;;5029740;28;21062;-80
2021/05/30 13:08:18;;;;;;;3.70;1.50;;;21.40;81.50;;;;;;5058131;28;20542;-78
2021/05/30 13:10:57;;;;;;;1.40;1.30;;;21.40;79.00;;;;;;5041202;28;21055;-79